sensor_id;sensor_type;location;lat;lon;timestamp;temperature;humidity
14884;DHT22;7534;50.762;7.000;2023-05-10T00:02:09;14.10;99.90
14884;DHT22;7534;50.762;7.000;2023-05-10T00:04:35;14.10;99.90
14884;DHT22;7534;50.762;7.000;2023-05-10T00:07:00;14.20;99.90
14884;DHT22;7534;50.762;7.000;2023-05-10T00:09:26;14.20;99.90
14884;DHT22;7534;50.762;7.000;2023-05-10T00:11:52;14.10;99.90
14884;DHT22;7534;50.762;7.000;2023-05-10T00:14:18;14.20;99.90
14884;DHT22;7534;50.762;7.000;2023-05-10T00:16:44;14.30;99.90
14884;DHT22;7534;50.762;7.000;2023-05-10T00:19:10;14.20;99.90
14884;DHT22;7534;50.762;7.000;2023-05-10T00:21:36;14.20;99.90
14884;DHT22;7534;50.762;7.000;2023-05-10T00:24:01;14.20;99.90
14884;DHT22;7534;50.762;7.000;2023-05-10T00:26:27;14.20;99.90
14884;DHT22;7534;50.762;7.000;2023-05-10T00:28:53;14.20;99.90
14884;DHT22;7534;50.762;7.000;2023-05-10T00:31:19;14.10;99.90
14884;DHT22;7534;50.762;7.000;2023-05-10T00:33:44;14.10;99.90
14884;DHT22;7534;50.762;7.000;2023-05-10T00:36:10;14.10;99.90
14884;DHT22;7534;50.762;7.000;2023-05-10T00:38:36;14.20;99.90
14884;DHT22;7534;50.762;7.000;2023-05-10T00:41:02;14.20;99.90
14884;DHT22;7534;50.762;7.000;2023-05-10T00:43:28;14.30;99.90
14884;DHT22;7534;50.762;7.000;2023-05-10T00:45:54;14.30;99.90
14884;DHT22;7534;50.762;7.000;2023-05-10T00:48:20;14.30;99.90
14884;DHT22;7534;50.762;7.000;2023-05-10T00:50:46;14.30;99.90
14884;DHT22;7534;50.762;7.000;2023-05-10T00:53:12;14.20;99.90
14884;DHT22;7534;50.762;7.000;2023-05-10T00:55:38;14.20;99.90
14884;DHT22;7534;50.762;7.000;2023-05-10T00:58:04;14.20;99.90
14884;DHT22;7534;50.762;7.000;2023-05-10T01:00:32;14.20;99.90
14884;DHT22;7534;50.762;7.000;2023-05-10T01:02:59;14.30;99.90
14884;DHT22;7534;50.762;7.000;2023-05-10T01:05:25;14.30;99.90
14884;DHT22;7534;50.762;7.000;2023-05-10T01:07:52;14.30;99.90
14884;DHT22;7534;50.762;7.000;2023-05-10T01:10:18;14.20;99.90
14884;DHT22;7534;50.762;7.000;2023-05-10T01:12:46;14.00;99.90
14884;DHT22;7534;50.762;7.000;2023-05-10T01:15:12;14.00;99.90
14884;DHT22;7534;50.762;7.000;2023-05-10T01:17:42;14.00;99.90
14884;DHT22;7534;50.762;7.000;2023-05-10T01:20:11;14.10;99.90
14884;DHT22;7534;50.762;7.000;2023-05-10T01:25:57;14.00;99.90
14884;DHT22;7534;50.762;7.000;2023-05-10T01:29:11;14.00;99.90
14884;DHT22;7534;50.762;7.000;2023-05-10T01:35:06;14.10;99.90
14884;DHT22;7534;50.762;7.000;2023-05-10T01:41:18;14.10;99.90
14884;DHT22;7534;50.762;7.000;2023-05-10T01:43:54;14.00;99.90
14884;DHT22;7534;50.762;7.000;2023-05-10T01:46:28;13.90;99.90
14884;DHT22;7534;50.762;7.000;2023-05-10T01:49:01;13.90;99.90
14884;DHT22;7534;50.762;7.000;2023-05-10T01:51:40;13.90;99.90
14884;DHT22;7534;50.762;7.000;2023-05-10T01:54:13;13.90;99.90
14884;DHT22;7534;50.762;7.000;2023-05-10T01:56:43;13.80;99.90
14884;DHT22;7534;50.762;7.000;2023-05-10T01:59:16;13.90;99.90
14884;DHT22;7534;50.762;7.000;2023-05-10T02:01:46;14.00;99.90
14884;DHT22;7534;50.762;7.000;2023-05-10T02:04:16;13.90;99.90
14884;DHT22;7534;50.762;7.000;2023-05-10T02:06:45;13.90;99.90
14884;DHT22;7534;50.762;7.000;2023-05-10T02:09:14;14.00;99.90
14884;DHT22;7534;50.762;7.000;2023-05-10T02:11:43;14.00;99.90
14884;DHT22;7534;50.762;7.000;2023-05-10T02:14:10;14.10;99.90
14884;DHT22;7534;50.762;7.000;2023-05-10T02:16:38;14.00;99.90
14884;DHT22;7534;50.762;7.000;2023-05-10T02:19:05;14.10;99.90
14884;DHT22;7534;50.762;7.000;2023-05-10T02:21:33;13.90;99.90
14884;DHT22;7534;50.762;7.000;2023-05-10T02:24:02;13.80;99.90
14884;DHT22;7534;50.762;7.000;2023-05-10T02:26:31;13.90;99.90
14884;DHT22;7534;50.762;7.000;2023-05-10T02:29:01;13.90;99.90
14884;DHT22;7534;50.762;7.000;2023-05-10T02:31:32;14.00;99.90
14884;DHT22;7534;50.762;7.000;2023-05-10T02:34:00;14.00;99.90
14884;DHT22;7534;50.762;7.000;2023-05-10T02:36:28;14.00;99.90
14884;DHT22;7534;50.762;7.000;2023-05-10T02:38:58;14.00;99.90
14884;DHT22;7534;50.762;7.000;2023-05-10T02:41:26;14.00;99.90
14884;DHT22;7534;50.762;7.000;2023-05-10T02:43:56;14.00;99.90
14884;DHT22;7534;50.762;7.000;2023-05-10T02:46:25;14.00;99.90
14884;DHT22;7534;50.762;7.000;2023-05-10T02:48:50;13.90;99.90
14884;DHT22;7534;50.762;7.000;2023-05-10T02:51:19;14.00;99.90
14884;DHT22;7534;50.762;7.000;2023-05-10T02:53:50;14.00;99.90
14884;DHT22;7534;50.762;7.000;2023-05-10T02:56:34;14.00;99.90
14884;DHT22;7534;50.762;7.000;2023-05-10T02:59:04;14.00;99.90
14884;DHT22;7534;50.762;7.000;2023-05-10T03:01:30;14.10;99.90
14884;DHT22;7534;50.762;7.000;2023-05-10T03:03:57;14.10;99.90
14884;DHT22;7534;50.762;7.000;2023-05-10T03:06:22;14.20;99.90
14884;DHT22;7534;50.762;7.000;2023-05-10T03:08:48;14.10;99.90
14884;DHT22;7534;50.762;7.000;2023-05-10T03:11:28;14.00;99.90
14884;DHT22;7534;50.762;7.000;2023-05-10T03:17:06;14.10;99.90
14884;DHT22;7534;50.762;7.000;2023-05-10T03:22:10;14.10;99.90
14884;DHT22;7534;50.762;7.000;2023-05-10T03:24:39;14.10;99.90
14884;DHT22;7534;50.762;7.000;2023-05-10T03:27:08;14.00;99.90
14884;DHT22;7534;50.762;7.000;2023-05-10T03:29:34;14.10;99.90
14884;DHT22;7534;50.762;7.000;2023-05-10T03:32:01;14.10;99.90
14884;DHT22;7534;50.762;7.000;2023-05-10T03:34:30;14.10;99.90
14884;DHT22;7534;50.762;7.000;2023-05-10T03:36:56;14.00;99.90
14884;DHT22;7534;50.762;7.000;2023-05-10T03:39:23;14.00;99.90
14884;DHT22;7534;50.762;7.000;2023-05-10T03:41:50;14.20;99.90
14884;DHT22;7534;50.762;7.000;2023-05-10T03:44:15;14.20;99.90
14884;DHT22;7534;50.762;7.000;2023-05-10T03:46:41;14.10;99.90
14884;DHT22;7534;50.762;7.000;2023-05-10T03:49:07;14.10;99.90
14884;DHT22;7534;50.762;7.000;2023-05-10T03:51:32;14.10;99.90
14884;DHT22;7534;50.762;7.000;2023-05-10T03:53:58;14.20;99.90
14884;DHT22;7534;50.762;7.000;2023-05-10T03:56:24;14.20;99.90
14884;DHT22;7534;50.762;7.000;2023-05-10T03:58:49;14.30;99.90
14884;DHT22;7534;50.762;7.000;2023-05-10T04:01:15;14.30;99.90
14884;DHT22;7534;50.762;7.000;2023-05-10T04:03:41;14.30;99.90
14884;DHT22;7534;50.762;7.000;2023-05-10T04:06:06;14.30;99.90
14884;DHT22;7534;50.762;7.000;2023-05-10T04:08:34;14.30;99.90
14884;DHT22;7534;50.762;7.000;2023-05-10T04:11:07;14.30;99.90
14884;DHT22;7534;50.762;7.000;2023-05-10T04:13:34;14.40;99.90
14884;DHT22;7534;50.762;7.000;2023-05-10T04:16:01;14.30;99.90
14884;DHT22;7534;50.762;7.000;2023-05-10T04:18:27;14.30;99.90
14884;DHT22;7534;50.762;7.000;2023-05-10T04:20:53;14.40;99.90
14884;DHT22;7534;50.762;7.000;2023-05-10T04:23:19;14.20;99.90
14884;DHT22;7534;50.762;7.000;2023-05-10T04:25:45;14.30;99.90
14884;DHT22;7534;50.762;7.000;2023-05-10T04:28:11;14.30;99.90
14884;DHT22;7534;50.762;7.000;2023-05-10T04:30:37;14.40;99.90
14884;DHT22;7534;50.762;7.000;2023-05-10T04:33:02;14.40;99.90
14884;DHT22;7534;50.762;7.000;2023-05-10T04:35:28;14.30;99.90
14884;DHT22;7534;50.762;7.000;2023-05-10T04:37:54;14.40;99.90
14884;DHT22;7534;50.762;7.000;2023-05-10T04:40:20;14.40;99.90
14884;DHT22;7534;50.762;7.000;2023-05-10T04:42:47;14.50;99.90
14884;DHT22;7534;50.762;7.000;2023-05-10T04:45:12;14.60;99.90
14884;DHT22;7534;50.762;7.000;2023-05-10T04:47:40;14.60;99.90
14884;DHT22;7534;50.762;7.000;2023-05-10T04:50:07;14.70;99.90
14884;DHT22;7534;50.762;7.000;2023-05-10T04:52:34;14.70;99.90
14884;DHT22;7534;50.762;7.000;2023-05-10T04:54:59;14.70;99.90
14884;DHT22;7534;50.762;7.000;2023-05-10T04:57:25;14.80;99.90
14884;DHT22;7534;50.762;7.000;2023-05-10T04:59:51;14.80;99.90
14884;DHT22;7534;50.762;7.000;2023-05-10T05:02:16;14.80;99.90
14884;DHT22;7534;50.762;7.000;2023-05-10T05:04:42;14.90;99.90
14884;DHT22;7534;50.762;7.000;2023-05-10T05:07:07;14.90;99.90
14884;DHT22;7534;50.762;7.000;2023-05-10T05:09:33;14.90;99.90
14884;DHT22;7534;50.762;7.000;2023-05-10T05:11:59;15.00;99.90
14884;DHT22;7534;50.762;7.000;2023-05-10T05:14:25;15.10;99.90
14884;DHT22;7534;50.762;7.000;2023-05-10T05:16:54;15.10;99.90
14884;DHT22;7534;50.762;7.000;2023-05-10T05:19:19;15.00;99.90
14884;DHT22;7534;50.762;7.000;2023-05-10T05:21:45;15.10;99.90
14884;DHT22;7534;50.762;7.000;2023-05-10T05:24:11;15.20;99.90
14884;DHT22;7534;50.762;7.000;2023-05-10T05:26:38;15.20;99.90
14884;DHT22;7534;50.762;7.000;2023-05-10T05:29:04;15.20;99.90
14884;DHT22;7534;50.762;7.000;2023-05-10T05:31:29;15.20;99.90
14884;DHT22;7534;50.762;7.000;2023-05-10T05:33:55;15.40;99.90
14884;DHT22;7534;50.762;7.000;2023-05-10T05:36:21;15.40;99.90
14884;DHT22;7534;50.762;7.000;2023-05-10T05:38:47;15.60;99.90
14884;DHT22;7534;50.762;7.000;2023-05-10T05:41:13;15.60;99.90
14884;DHT22;7534;50.762;7.000;2023-05-10T05:43:39;15.60;99.90
14884;DHT22;7534;50.762;7.000;2023-05-10T05:46:04;15.70;99.90
14884;DHT22;7534;50.762;7.000;2023-05-10T05:48:30;15.60;99.90
14884;DHT22;7534;50.762;7.000;2023-05-10T05:50:57;15.60;99.90
14884;DHT22;7534;50.762;7.000;2023-05-10T05:53:23;15.80;99.90
14884;DHT22;7534;50.762;7.000;2023-05-10T05:55:57;16.00;99.90
14884;DHT22;7534;50.762;7.000;2023-05-10T05:58:24;16.20;99.90
14884;DHT22;7534;50.762;7.000;2023-05-10T06:00:51;16.20;99.90
14884;DHT22;7534;50.762;7.000;2023-05-10T06:03:20;16.20;99.90
14884;DHT22;7534;50.762;7.000;2023-05-10T06:05:46;16.20;99.90
14884;DHT22;7534;50.762;7.000;2023-05-10T06:08:12;16.40;99.90
14884;DHT22;7534;50.762;7.000;2023-05-10T06:10:38;16.40;99.90
14884;DHT22;7534;50.762;7.000;2023-05-10T06:13:03;16.40;99.90
14884;DHT22;7534;50.762;7.000;2023-05-10T06:15:29;16.50;99.90
14884;DHT22;7534;50.762;7.000;2023-05-10T06:17:55;16.70;99.90
14884;DHT22;7534;50.762;7.000;2023-05-10T06:20:21;16.80;99.90
14884;DHT22;7534;50.762;7.000;2023-05-10T06:22:46;16.90;99.90
14884;DHT22;7534;50.762;7.000;2023-05-10T06:25:12;17.00;99.90
14884;DHT22;7534;50.762;7.000;2023-05-10T06:27:39;17.10;99.90
14884;DHT22;7534;50.762;7.000;2023-05-10T06:30:06;17.10;99.90
14884;DHT22;7534;50.762;7.000;2023-05-10T06:32:33;17.20;99.90
14884;DHT22;7534;50.762;7.000;2023-05-10T06:34:59;17.20;99.90
14884;DHT22;7534;50.762;7.000;2023-05-10T06:37:24;17.10;99.90
14884;DHT22;7534;50.762;7.000;2023-05-10T06:39:50;17.10;99.90
14884;DHT22;7534;50.762;7.000;2023-05-10T06:42:16;17.00;99.90
14884;DHT22;7534;50.762;7.000;2023-05-10T06:44:41;16.80;99.90
14884;DHT22;7534;50.762;7.000;2023-05-10T06:47:07;16.70;99.90
14884;DHT22;7534;50.762;7.000;2023-05-10T06:49:33;16.50;99.90
14884;DHT22;7534;50.762;7.000;2023-05-10T06:51:58;16.60;99.90
14884;DHT22;7534;50.762;7.000;2023-05-10T06:54:24;16.80;99.90
14884;DHT22;7534;50.762;7.000;2023-05-10T06:56:50;16.90;99.90
14884;DHT22;7534;50.762;7.000;2023-05-10T06:59:15;17.00;99.90
14884;DHT22;7534;50.762;7.000;2023-05-10T07:01:42;17.00;99.90
14884;DHT22;7534;50.762;7.000;2023-05-10T07:04:08;17.20;99.90
14884;DHT22;7534;50.762;7.000;2023-05-10T07:06:33;17.30;99.90
14884;DHT22;7534;50.762;7.000;2023-05-10T07:09:00;17.20;99.90
14884;DHT22;7534;50.762;7.000;2023-05-10T07:11:25;17.30;99.90
14884;DHT22;7534;50.762;7.000;2023-05-10T07:13:52;17.30;99.90
14884;DHT22;7534;50.762;7.000;2023-05-10T07:16:17;17.20;99.90
14884;DHT22;7534;50.762;7.000;2023-05-10T07:18:43;17.10;99.90
14884;DHT22;7534;50.762;7.000;2023-05-10T07:21:09;17.10;99.90
14884;DHT22;7534;50.762;7.000;2023-05-10T07:23:35;17.10;99.90
14884;DHT22;7534;50.762;7.000;2023-05-10T07:26:01;17.10;99.90
14884;DHT22;7534;50.762;7.000;2023-05-10T07:28:27;17.10;99.90
14884;DHT22;7534;50.762;7.000;2023-05-10T07:30:53;17.10;99.90
14884;DHT22;7534;50.762;7.000;2023-05-10T07:33:19;17.20;99.90
14884;DHT22;7534;50.762;7.000;2023-05-10T07:35:45;17.30;99.90
14884;DHT22;7534;50.762;7.000;2023-05-10T07:38:10;17.40;99.90
14884;DHT22;7534;50.762;7.000;2023-05-10T07:40:36;17.50;99.90
14884;DHT22;7534;50.762;7.000;2023-05-10T07:43:02;17.50;99.90
14884;DHT22;7534;50.762;7.000;2023-05-10T07:45:28;17.50;99.90
14884;DHT22;7534;50.762;7.000;2023-05-10T07:47:54;17.50;99.90
14884;DHT22;7534;50.762;7.000;2023-05-10T07:50:19;17.60;99.90
14884;DHT22;7534;50.762;7.000;2023-05-10T07:52:47;17.70;99.90
14884;DHT22;7534;50.762;7.000;2023-05-10T07:55:13;17.70;99.90
14884;DHT22;7534;50.762;7.000;2023-05-10T07:57:39;17.70;99.90
14884;DHT22;7534;50.762;7.000;2023-05-10T08:00:05;17.80;99.90
14884;DHT22;7534;50.762;7.000;2023-05-10T08:02:34;17.80;99.90
14884;DHT22;7534;50.762;7.000;2023-05-10T08:05:00;17.80;99.90
14884;DHT22;7534;50.762;7.000;2023-05-10T08:07:26;18.00;99.90
14884;DHT22;7534;50.762;7.000;2023-05-10T08:09:52;17.80;99.90
14884;DHT22;7534;50.762;7.000;2023-05-10T08:12:17;17.70;99.90
14884;DHT22;7534;50.762;7.000;2023-05-10T08:14:43;17.70;99.90
14884;DHT22;7534;50.762;7.000;2023-05-10T08:17:09;17.70;99.90
14884;DHT22;7534;50.762;7.000;2023-05-10T08:19:34;17.70;99.90
14884;DHT22;7534;50.762;7.000;2023-05-10T08:22:00;17.80;99.90
14884;DHT22;7534;50.762;7.000;2023-05-10T08:24:26;17.90;99.90
14884;DHT22;7534;50.762;7.000;2023-05-10T08:26:52;18.00;99.90
14884;DHT22;7534;50.762;7.000;2023-05-10T08:29:17;18.10;99.90
14884;DHT22;7534;50.762;7.000;2023-05-10T08:31:43;18.40;99.90
14884;DHT22;7534;50.762;7.000;2023-05-10T08:34:09;18.80;99.90
14884;DHT22;7534;50.762;7.000;2023-05-10T08:36:34;19.10;99.90
14884;DHT22;7534;50.762;7.000;2023-05-10T08:39:00;19.20;99.90
14884;DHT22;7534;50.762;7.000;2023-05-10T08:41:26;19.30;99.90
14884;DHT22;7534;50.762;7.000;2023-05-10T08:43:54;19.20;99.90
14884;DHT22;7534;50.762;7.000;2023-05-10T08:46:22;19.10;99.90
14884;DHT22;7534;50.762;7.000;2023-05-10T08:48:49;19.00;99.90
14884;DHT22;7534;50.762;7.000;2023-05-10T08:51:23;18.50;99.90
14884;DHT22;7534;50.762;7.000;2023-05-10T08:53:53;18.00;99.90
14884;DHT22;7534;50.762;7.000;2023-05-10T08:56:19;17.50;99.90
14884;DHT22;7534;50.762;7.000;2023-05-10T08:58:45;16.70;99.90
14884;DHT22;7534;50.762;7.000;2023-05-10T09:01:12;16.80;99.90
14884;DHT22;7534;50.762;7.000;2023-05-10T09:03:40;16.70;99.90
14884;DHT22;7534;50.762;7.000;2023-05-10T09:06:06;16.50;99.90
14884;DHT22;7534;50.762;7.000;2023-05-10T09:08:33;16.50;99.90
14884;DHT22;7534;50.762;7.000;2023-05-10T09:11:00;16.60;99.90
14884;DHT22;7534;50.762;7.000;2023-05-10T09:13:27;16.60;99.90
14884;DHT22;7534;50.762;7.000;2023-05-10T09:15:53;16.80;99.90
14884;DHT22;7534;50.762;7.000;2023-05-10T09:18:19;16.80;99.90
14884;DHT22;7534;50.762;7.000;2023-05-10T09:20:45;16.90;99.90
14884;DHT22;7534;50.762;7.000;2023-05-10T09:23:10;17.00;99.90
14884;DHT22;7534;50.762;7.000;2023-05-10T09:25:36;17.00;99.90
14884;DHT22;7534;50.762;7.000;2023-05-10T09:28:06;17.10;99.90
14884;DHT22;7534;50.762;7.000;2023-05-10T09:30:34;17.50;99.90
14884;DHT22;7534;50.762;7.000;2023-05-10T09:33:00;17.70;99.90
14884;DHT22;7534;50.762;7.000;2023-05-10T09:35:28;18.00;99.90
14884;DHT22;7534;50.762;7.000;2023-05-10T09:37:59;18.40;99.90
14884;DHT22;7534;50.762;7.000;2023-05-10T09:40:28;18.60;99.90
14884;DHT22;7534;50.762;7.000;2023-05-10T09:43:03;18.90;99.90
14884;DHT22;7534;50.762;7.000;2023-05-10T09:45:31;18.70;99.90
14884;DHT22;7534;50.762;7.000;2023-05-10T09:47:59;18.80;99.90
14884;DHT22;7534;50.762;7.000;2023-05-10T09:50:27;19.00;99.90
14884;DHT22;7534;50.762;7.000;2023-05-10T09:53:01;19.40;99.90
14884;DHT22;7534;50.762;7.000;2023-05-10T09:55:46;19.20;99.90
14884;DHT22;7534;50.762;7.000;2023-05-10T09:58:14;19.40;99.90
14884;DHT22;7534;50.762;7.000;2023-05-10T10:00:42;19.30;99.90
14884;DHT22;7534;50.762;7.000;2023-05-10T10:03:16;18.70;99.90
14884;DHT22;7534;50.762;7.000;2023-05-10T10:05:44;19.10;99.90
14884;DHT22;7534;50.762;7.000;2023-05-10T10:08:12;19.40;99.90
14884;DHT22;7534;50.762;7.000;2023-05-10T10:10:38;20.30;99.90
14884;DHT22;7534;50.762;7.000;2023-05-10T10:13:10;20.70;99.90
14884;DHT22;7534;50.762;7.000;2023-05-10T10:15:36;21.20;99.90
14884;DHT22;7534;50.762;7.000;2023-05-10T10:18:02;21.40;99.10
14884;DHT22;7534;50.762;7.000;2023-05-10T10:20:31;21.10;98.50
14884;DHT22;7534;50.762;7.000;2023-05-10T10:22:57;20.60;99.50
14884;DHT22;7534;50.762;7.000;2023-05-10T10:25:23;20.10;99.90
14884;DHT22;7534;50.762;7.000;2023-05-10T10:30:28;19.00;99.90
14884;DHT22;7534;50.762;7.000;2023-05-10T10:35:47;19.70;99.90
14884;DHT22;7534;50.762;7.000;2023-05-10T10:38:13;20.70;99.90
14884;DHT22;7534;50.762;7.000;2023-05-10T10:40:39;22.30;99.30
14884;DHT22;7534;50.762;7.000;2023-05-10T10:43:23;23.10;97.00
14884;DHT22;7534;50.762;7.000;2023-05-10T10:46:13;23.60;94.60
14884;DHT22;7534;50.762;7.000;2023-05-10T10:48:41;24.10;95.20
14884;DHT22;7534;50.762;7.000;2023-05-10T10:51:13;24.00;94.00
14884;DHT22;7534;50.762;7.000;2023-05-10T10:53:40;23.30;93.70
14884;DHT22;7534;50.762;7.000;2023-05-10T10:56:11;22.50;94.90
14884;DHT22;7534;50.762;7.000;2023-05-10T10:58:39;21.80;94.70
14884;DHT22;7534;50.762;7.000;2023-05-10T11:01:16;21.40;95.10
14884;DHT22;7534;50.762;7.000;2023-05-10T11:06:31;21.70;94.60
14884;DHT22;7534;50.762;7.000;2023-05-10T11:08:59;21.80;95.70
14884;DHT22;7534;50.762;7.000;2023-05-10T11:11:31;22.60;95.40
14884;DHT22;7534;50.762;7.000;2023-05-10T11:14:03;23.30;94.30
14884;DHT22;7534;50.762;7.000;2023-05-10T11:16:44;23.80;91.60
14884;DHT22;7534;50.762;7.000;2023-05-10T11:19:14;23.60;93.30
14884;DHT22;7534;50.762;7.000;2023-05-10T11:22:11;24.00;91.60
14884;DHT22;7534;50.762;7.000;2023-05-10T11:24:39;24.40;91.90
14884;DHT22;7534;50.762;7.000;2023-05-10T11:27:05;24.10;90.30
14884;DHT22;7534;50.762;7.000;2023-05-10T11:29:31;23.80;90.80
14884;DHT22;7534;50.762;7.000;2023-05-10T11:31:58;23.40;91.40
14884;DHT22;7534;50.762;7.000;2023-05-10T11:34:29;23.30;92.20
14884;DHT22;7534;50.762;7.000;2023-05-10T11:36:59;23.40;91.70
14884;DHT22;7534;50.762;7.000;2023-05-10T11:39:29;23.50;91.60
14884;DHT22;7534;50.762;7.000;2023-05-10T11:41:57;23.70;91.60
14884;DHT22;7534;50.762;7.000;2023-05-10T11:44:24;23.50;90.80
14884;DHT22;7534;50.762;7.000;2023-05-10T11:46:54;23.50;91.20
14884;DHT22;7534;50.762;7.000;2023-05-10T11:49:24;23.30;89.20
14884;DHT22;7534;50.762;7.000;2023-05-10T11:51:51;23.50;90.40
14884;DHT22;7534;50.762;7.000;2023-05-10T11:54:16;23.70;91.40
14884;DHT22;7534;50.762;7.000;2023-05-10T11:56:42;23.70;90.20
14884;DHT22;7534;50.762;7.000;2023-05-10T11:59:08;23.50;90.10
14884;DHT22;7534;50.762;7.000;2023-05-10T12:01:34;23.50;91.20
14884;DHT22;7534;50.762;7.000;2023-05-10T12:04:00;23.40;90.10
14884;DHT22;7534;50.762;7.000;2023-05-10T12:06:28;23.60;89.50
14884;DHT22;7534;50.762;7.000;2023-05-10T12:08:56;23.80;87.50
14884;DHT22;7534;50.762;7.000;2023-05-10T12:11:27;23.90;89.70
14884;DHT22;7534;50.762;7.000;2023-05-10T12:13:54;24.30;88.20
14884;DHT22;7534;50.762;7.000;2023-05-10T12:16:23;24.60;88.50
14884;DHT22;7534;50.762;7.000;2023-05-10T12:18:51;24.60;89.30
14884;DHT22;7534;50.762;7.000;2023-05-10T12:21:20;24.80;86.40
14884;DHT22;7534;50.762;7.000;2023-05-10T12:23:54;24.80;81.50
14884;DHT22;7534;50.762;7.000;2023-05-10T12:26:24;24.30;81.70
14884;DHT22;7534;50.762;7.000;2023-05-10T12:29:18;23.90;84.00
14884;DHT22;7534;50.762;7.000;2023-05-10T12:31:55;23.00;87.70
14884;DHT22;7534;50.762;7.000;2023-05-10T12:34:33;22.70;90.00
14884;DHT22;7534;50.762;7.000;2023-05-10T12:37:02;22.40;90.90
14884;DHT22;7534;50.762;7.000;2023-05-10T12:39:44;22.50;91.00
14884;DHT22;7534;50.762;7.000;2023-05-10T12:42:11;22.70;92.00
14884;DHT22;7534;50.762;7.000;2023-05-10T12:44:37;22.70;90.80
14884;DHT22;7534;50.762;7.000;2023-05-10T12:47:03;22.60;91.50
14884;DHT22;7534;50.762;7.000;2023-05-10T12:49:29;22.40;91.00
14884;DHT22;7534;50.762;7.000;2023-05-10T12:51:55;22.10;90.30
14884;DHT22;7534;50.762;7.000;2023-05-10T12:54:20;21.90;91.60
14884;DHT22;7534;50.762;7.000;2023-05-10T12:56:46;21.50;91.40
14884;DHT22;7534;50.762;7.000;2023-05-10T12:59:12;21.40;92.90
14884;DHT22;7534;50.762;7.000;2023-05-10T13:01:37;21.40;94.20
14884;DHT22;7534;50.762;7.000;2023-05-10T13:04:03;21.60;92.60
14884;DHT22;7534;50.762;7.000;2023-05-10T13:06:29;21.90;92.40
14884;DHT22;7534;50.762;7.000;2023-05-10T13:08:56;22.10;91.90
14884;DHT22;7534;50.762;7.000;2023-05-10T13:11:22;22.40;91.80
14884;DHT22;7534;50.762;7.000;2023-05-10T13:13:48;22.80;90.50
14884;DHT22;7534;50.762;7.000;2023-05-10T13:16:14;22.60;90.40
14884;DHT22;7534;50.762;7.000;2023-05-10T13:18:39;22.70;90.20
14884;DHT22;7534;50.762;7.000;2023-05-10T13:21:05;22.90;90.50
14884;DHT22;7534;50.762;7.000;2023-05-10T13:23:31;23.20;88.70
14884;DHT22;7534;50.762;7.000;2023-05-10T13:25:56;23.10;90.10
14884;DHT22;7534;50.762;7.000;2023-05-10T13:28:22;23.40;90.00
14884;DHT22;7534;50.762;7.000;2023-05-10T13:30:48;23.70;88.60
14884;DHT22;7534;50.762;7.000;2023-05-10T13:33:13;23.80;89.50
14884;DHT22;7534;50.762;7.000;2023-05-10T13:35:39;23.50;87.20
14884;DHT22;7534;50.762;7.000;2023-05-10T13:38:05;23.00;88.60
14884;DHT22;7534;50.762;7.000;2023-05-10T13:40:33;22.90;89.40
14884;DHT22;7534;50.762;7.000;2023-05-10T13:42:59;22.70;88.80
14884;DHT22;7534;50.762;7.000;2023-05-10T13:45:24;22.50;90.30
14884;DHT22;7534;50.762;7.000;2023-05-10T13:47:50;22.30;89.30
14884;DHT22;7534;50.762;7.000;2023-05-10T13:50:16;21.80;90.60
14884;DHT22;7534;50.762;7.000;2023-05-10T13:52:42;21.40;91.80
14884;DHT22;7534;50.762;7.000;2023-05-10T13:55:08;21.10;92.10
14884;DHT22;7534;50.762;7.000;2023-05-10T13:57:33;21.10;92.10
14884;DHT22;7534;50.762;7.000;2023-05-10T14:00:01;21.20;92.50
14884;DHT22;7534;50.762;7.000;2023-05-10T14:02:27;21.40;91.80
14884;DHT22;7534;50.762;7.000;2023-05-10T14:04:52;20.90;91.80
14884;DHT22;7534;50.762;7.000;2023-05-10T14:07:18;20.70;92.60
14884;DHT22;7534;50.762;7.000;2023-05-10T14:09:44;20.50;93.80
14884;DHT22;7534;50.762;7.000;2023-05-10T14:12:10;20.40;93.90
14884;DHT22;7534;50.762;7.000;2023-05-10T14:14:35;20.30;93.10
14884;DHT22;7534;50.762;7.000;2023-05-10T14:17:01;20.20;94.00
14884;DHT22;7534;50.762;7.000;2023-05-10T14:19:27;20.20;92.70
14884;DHT22;7534;50.762;7.000;2023-05-10T14:21:53;20.20;93.20
14884;DHT22;7534;50.762;7.000;2023-05-10T14:24:18;20.20;93.70
14884;DHT22;7534;50.762;7.000;2023-05-10T14:26:44;20.40;92.70
14884;DHT22;7534;50.762;7.000;2023-05-10T14:29:10;20.40;92.70
14884;DHT22;7534;50.762;7.000;2023-05-10T14:31:35;20.30;93.40
14884;DHT22;7534;50.762;7.000;2023-05-10T14:34:01;20.20;94.20
14884;DHT22;7534;50.762;7.000;2023-05-10T14:36:27;20.00;93.70
14884;DHT22;7534;50.762;7.000;2023-05-10T14:38:52;20.10;95.10
14884;DHT22;7534;50.762;7.000;2023-05-10T14:41:19;20.10;94.30
14884;DHT22;7534;50.762;7.000;2023-05-10T14:43:45;20.10;95.00
14884;DHT22;7534;50.762;7.000;2023-05-10T14:46:11;20.00;96.10
14884;DHT22;7534;50.762;7.000;2023-05-10T14:48:36;20.10;94.40
14884;DHT22;7534;50.762;7.000;2023-05-10T14:51:02;20.40;94.80
14884;DHT22;7534;50.762;7.000;2023-05-10T14:53:28;20.80;94.80
14884;DHT22;7534;50.762;7.000;2023-05-10T14:55:54;21.20;93.70
14884;DHT22;7534;50.762;7.000;2023-05-10T14:58:20;21.70;93.10
14884;DHT22;7534;50.762;7.000;2023-05-10T15:00:45;22.00;92.00
14884;DHT22;7534;50.762;7.000;2023-05-10T15:03:11;22.00;92.50
14884;DHT22;7534;50.762;7.000;2023-05-10T15:05:37;21.80;93.50
14884;DHT22;7534;50.762;7.000;2023-05-10T15:08:03;21.70;93.80
14884;DHT22;7534;50.762;7.000;2023-05-10T15:10:30;21.60;93.50
14884;DHT22;7534;50.762;7.000;2023-05-10T15:12:56;21.50;92.80
14884;DHT22;7534;50.762;7.000;2023-05-10T15:15:21;21.30;94.00
14884;DHT22;7534;50.762;7.000;2023-05-10T15:17:47;21.40;94.00
14884;DHT22;7534;50.762;7.000;2023-05-10T15:20:13;21.10;95.00
14884;DHT22;7534;50.762;7.000;2023-05-10T15:22:39;21.00;95.90
14884;DHT22;7534;50.762;7.000;2023-05-10T15:25:06;20.80;96.00
14884;DHT22;7534;50.762;7.000;2023-05-10T15:27:32;20.60;96.60
14884;DHT22;7534;50.762;7.000;2023-05-10T15:29:58;20.40;96.30
14884;DHT22;7534;50.762;7.000;2023-05-10T15:32:24;20.20;96.60
14884;DHT22;7534;50.762;7.000;2023-05-10T15:34:50;19.80;97.60
14884;DHT22;7534;50.762;7.000;2023-05-10T15:37:16;19.50;99.00
14884;DHT22;7534;50.762;7.000;2023-05-10T15:39:42;19.30;99.80
14884;DHT22;7534;50.762;7.000;2023-05-10T15:42:10;19.00;99.90
14884;DHT22;7534;50.762;7.000;2023-05-10T15:44:35;18.80;99.60
14884;DHT22;7534;50.762;7.000;2023-05-10T15:47:04;18.40;99.90
14884;DHT22;7534;50.762;7.000;2023-05-10T15:49:30;18.30;99.90
14884;DHT22;7534;50.762;7.000;2023-05-10T15:51:57;18.00;99.90
14884;DHT22;7534;50.762;7.000;2023-05-10T15:54:31;17.90;99.90
14884;DHT22;7534;50.762;7.000;2023-05-10T15:57:03;17.60;99.90
14884;DHT22;7534;50.762;7.000;2023-05-10T15:59:29;17.40;99.90
14884;DHT22;7534;50.762;7.000;2023-05-10T16:01:55;17.20;99.90
14884;DHT22;7534;50.762;7.000;2023-05-10T16:04:22;17.00;99.90
14884;DHT22;7534;50.762;7.000;2023-05-10T16:06:48;17.00;99.90
14884;DHT22;7534;50.762;7.000;2023-05-10T16:09:14;16.80;99.90
14884;DHT22;7534;50.762;7.000;2023-05-10T16:11:42;16.90;99.90